sensor_id;sensor_type;location;lat;lon;timestamp;temperature;humidity
27922;DHT22;15261;50.356;10.340;2024-03-06T00:05:40;7.70;99.90
27922;DHT22;15261;50.356;10.340;2024-03-06T00:08:06;7.70;99.90
27922;DHT22;15261;50.356;10.340;2024-03-06T00:10:31;7.80;99.90
27922;DHT22;15261;50.356;10.340;2024-03-06T00:12:57;7.80;99.90
27922;DHT22;15261;50.356;10.340;2024-03-06T00:15:23;7.70;99.90
27922;DHT22;15261;50.356;10.340;2024-03-06T00:17:48;7.80;99.90
27922;DHT22;15261;50.356;10.340;2024-03-06T00:20:14;7.80;99.90
27922;DHT22;15261;50.356;10.340;2024-03-06T00:22:40;7.80;99.90
27922;DHT22;15261;50.356;10.340;2024-03-06T00:25:06;7.80;99.90
27922;DHT22;15261;50.356;10.340;2024-03-06T00:27:31;7.80;99.90
27922;DHT22;15261;50.356;10.340;2024-03-06T00:29:57;7.80;99.90
27922;DHT22;15261;50.356;10.340;2024-03-06T00:32:23;7.70;99.90
27922;DHT22;15261;50.356;10.340;2024-03-06T00:34:49;7.60;99.90
27922;DHT22;15261;50.356;10.340;2024-03-06T00:37:14;7.50;99.90
27922;DHT22;15261;50.356;10.340;2024-03-06T00:43:25;7.70;99.90
27922;DHT22;15261;50.356;10.340;2024-03-06T00:45:51;7.80;99.90
27922;DHT22;15261;50.356;10.340;2024-03-06T00:48:18;7.80;99.90
27922;DHT22;15261;50.356;10.340;2024-03-06T00:50:45;7.80;99.90
27922;DHT22;15261;50.356;10.340;2024-03-06T00:53:11;7.70;99.90
27922;DHT22;15261;50.356;10.340;2024-03-06T00:55:36;7.60;99.90
27922;DHT22;15261;50.356;10.340;2024-03-06T00:58:02;7.70;99.90
27922;DHT22;15261;50.356;10.340;2024-03-06T01:00:29;7.70;99.90
27922;DHT22;15261;50.356;10.340;2024-03-06T01:02:54;7.70;99.90
27922;DHT22;15261;50.356;10.340;2024-03-06T01:05:20;7.60;99.90
27922;DHT22;15261;50.356;10.340;2024-03-06T01:07:45;7.50;99.90
27922;DHT22;15261;50.356;10.340;2024-03-06T01:10:11;7.50;99.90
27922;DHT22;15261;50.356;10.340;2024-03-06T01:12:37;7.50;99.90
27922;DHT22;15261;50.356;10.340;2024-03-06T01:15:02;7.60;99.90
27922;DHT22;15261;50.356;10.340;2024-03-06T01:17:29;7.60;99.90
27922;DHT22;15261;50.356;10.340;2024-03-06T01:19:54;7.60;99.90
27922;DHT22;15261;50.356;10.340;2024-03-06T01:22:20;7.40;99.90
27922;DHT22;15261;50.356;10.340;2024-03-06T01:25:08;7.40;99.90
27922;DHT22;15261;50.356;10.340;2024-03-06T01:27:34;7.50;99.90
27922;DHT22;15261;50.356;10.340;2024-03-06T01:30:00;7.50;99.90
27922;DHT22;15261;50.356;10.340;2024-03-06T01:32:26;7.50;99.90
27922;DHT22;15261;50.356;10.340;2024-03-06T01:34:51;7.50;99.90
27922;DHT22;15261;50.356;10.340;2024-03-06T01:37:17;7.50;99.90
27922;DHT22;15261;50.356;10.340;2024-03-06T01:39:42;7.60;99.90
27922;DHT22;15261;50.356;10.340;2024-03-06T01:42:08;7.50;99.90
27922;DHT22;15261;50.356;10.340;2024-03-06T01:44:33;7.60;99.90
27922;DHT22;15261;50.356;10.340;2024-03-06T01:46:59;7.40;99.90
27922;DHT22;15261;50.356;10.340;2024-03-06T01:49:25;7.40;99.90
27922;DHT22;15261;50.356;10.340;2024-03-06T01:51:57;7.30;99.90
27922;DHT22;15261;50.356;10.340;2024-03-06T01:54:24;7.30;99.90
27922;DHT22;15261;50.356;10.340;2024-03-06T01:56:50;7.30;99.90
27922;DHT22;15261;50.356;10.340;2024-03-06T01:59:20;7.20;99.90
27922;DHT22;15261;50.356;10.340;2024-03-06T02:23:22;7.30;99.90
27922;DHT22;15261;50.356;10.340;2024-03-06T02:25:47;7.20;99.90
27922;DHT22;15261;50.356;10.340;2024-03-06T02:28:14;7.10;99.90
27922;DHT22;15261;50.356;10.340;2024-03-06T02:30:39;7.10;99.90
27922;DHT22;15261;50.356;10.340;2024-03-06T02:33:05;7.10;99.90
27922;DHT22;15261;50.356;10.340;2024-03-06T02:35:32;7.00;99.90
27922;DHT22;15261;50.356;10.340;2024-03-06T02:38:00;7.00;99.90
27922;DHT22;15261;50.356;10.340;2024-03-06T02:40:25;7.00;99.90
27922;DHT22;15261;50.356;10.340;2024-03-06T02:42:51;7.00;99.90
27922;DHT22;15261;50.356;10.340;2024-03-06T02:45:16;7.00;99.90
27922;DHT22;15261;50.356;10.340;2024-03-06T02:47:44;7.00;99.90
27922;DHT22;15261;50.356;10.340;2024-03-06T02:50:09;6.90;99.90
27922;DHT22;15261;50.356;10.340;2024-03-06T02:52:36;7.00;99.90
27922;DHT22;15261;50.356;10.340;2024-03-06T02:55:03;7.00;99.90
27922;DHT22;15261;50.356;10.340;2024-03-06T02:57:29;7.00;99.90
27922;DHT22;15261;50.356;10.340;2024-03-06T02:59:58;7.10;99.90
27922;DHT22;15261;50.356;10.340;2024-03-06T03:02:24;7.00;99.90
27922;DHT22;15261;50.356;10.340;2024-03-06T03:04:50;7.00;99.90
27922;DHT22;15261;50.356;10.340;2024-03-06T03:07:20;7.00;99.90
27922;DHT22;15261;50.356;10.340;2024-03-06T03:09:46;7.00;99.90
27922;DHT22;15261;50.356;10.340;2024-03-06T03:12:12;7.00;99.90
27922;DHT22;15261;50.356;10.340;2024-03-06T03:14:40;7.00;99.90
27922;DHT22;15261;50.356;10.340;2024-03-06T03:17:05;7.00;99.90
27922;DHT22;15261;50.356;10.340;2024-03-06T03:19:31;7.00;99.90
27922;DHT22;15261;50.356;10.340;2024-03-06T03:21:57;7.10;99.90
27922;DHT22;15261;50.356;10.340;2024-03-06T03:24:23;7.00;99.90
27922;DHT22;15261;50.356;10.340;2024-03-06T03:26:51;6.90;99.90
27922;DHT22;15261;50.356;10.340;2024-03-06T03:29:16;6.90;99.90
27922;DHT22;15261;50.356;10.340;2024-03-06T03:31:43;6.90;99.90
27922;DHT22;15261;50.356;10.340;2024-03-06T03:34:09;6.90;99.90
27922;DHT22;15261;50.356;10.340;2024-03-06T03:36:40;6.90;99.90
27922;DHT22;15261;50.356;10.340;2024-03-06T03:39:05;7.00;99.90
27922;DHT22;15261;50.356;10.340;2024-03-06T03:41:31;6.90;99.90
27922;DHT22;15261;50.356;10.340;2024-03-06T03:43:57;7.00;99.90
27922;DHT22;15261;50.356;10.340;2024-03-06T03:46:23;7.00;99.90
27922;DHT22;15261;50.356;10.340;2024-03-06T03:48:49;7.00;99.90
27922;DHT22;15261;50.356;10.340;2024-03-06T03:51:15;7.00;99.90
27922;DHT22;15261;50.356;10.340;2024-03-06T03:53:41;7.10;99.90
27922;DHT22;15261;50.356;10.340;2024-03-06T03:56:07;7.10;99.90
27922;DHT22;15261;50.356;10.340;2024-03-06T03:58:32;7.20;99.90
27922;DHT22;15261;50.356;10.340;2024-03-06T04:00:58;7.20;99.90
27922;DHT22;15261;50.356;10.340;2024-03-06T04:03:24;7.20;99.90
27922;DHT22;15261;50.356;10.340;2024-03-06T04:05:50;7.10;99.90
27922;DHT22;15261;50.356;10.340;2024-03-06T04:08:15;7.10;99.90
27922;DHT22;15261;50.356;10.340;2024-03-06T04:10:44;7.10;99.90
27922;DHT22;15261;50.356;10.340;2024-03-06T04:13:14;7.00;99.90
27922;DHT22;15261;50.356;10.340;2024-03-06T04:15:40;7.00;99.90
27922;DHT22;15261;50.356;10.340;2024-03-06T04:18:05;7.10;99.90
27922;DHT22;15261;50.356;10.340;2024-03-06T04:20:31;7.00;99.90
27922;DHT22;15261;50.356;10.340;2024-03-06T04:22:59;7.10;99.90
27922;DHT22;15261;50.356;10.340;2024-03-06T04:25:25;7.10;99.90
27922;DHT22;15261;50.356;10.340;2024-03-06T04:27:50;7.10;99.90
27922;DHT22;15261;50.356;10.340;2024-03-06T04:30:16;7.10;99.90
27922;DHT22;15261;50.356;10.340;2024-03-06T04:32:42;7.10;99.90
27922;DHT22;15261;50.356;10.340;2024-03-06T04:35:07;7.10;99.90
27922;DHT22;15261;50.356;10.340;2024-03-06T04:37:35;7.10;99.90
27922;DHT22;15261;50.356;10.340;2024-03-06T04:40:01;7.10;99.90
27922;DHT22;15261;50.356;10.340;2024-03-06T04:42:29;7.10;99.90
27922;DHT22;15261;50.356;10.340;2024-03-06T04:44:54;7.10;99.90
27922;DHT22;15261;50.356;10.340;2024-03-06T04:47:20;7.10;99.90
27922;DHT22;15261;50.356;10.340;2024-03-06T04:49:46;7.10;99.90
27922;DHT22;15261;50.356;10.340;2024-03-06T04:52:11;7.10;99.90
27922;DHT22;15261;50.356;10.340;2024-03-06T04:54:37;7.10;99.90
27922;DHT22;15261;50.356;10.340;2024-03-06T04:57:06;7.10;99.90
27922;DHT22;15261;50.356;10.340;2024-03-06T04:59:31;7.10;99.90
27922;DHT22;15261;50.356;10.340;2024-03-06T05:01:57;7.00;99.90
27922;DHT22;15261;50.356;10.340;2024-03-06T05:04:22;6.90;99.90
27922;DHT22;15261;50.356;10.340;2024-03-06T05:06:48;6.90;99.90
27922;DHT22;15261;50.356;10.340;2024-03-06T05:09:13;6.90;99.90
27922;DHT22;15261;50.356;10.340;2024-03-06T05:11:40;6.90;99.90
27922;DHT22;15261;50.356;10.340;2024-03-06T05:14:05;6.90;99.90
27922;DHT22;15261;50.356;10.340;2024-03-06T05:16:31;6.90;99.90
27922;DHT22;15261;50.356;10.340;2024-03-06T05:18:57;6.90;99.90
27922;DHT22;15261;50.356;10.340;2024-03-06T05:21:22;6.90;99.90
27922;DHT22;15261;50.356;10.340;2024-03-06T05:23:51;6.90;99.90
27922;DHT22;15261;50.356;10.340;2024-03-06T05:26:17;6.90;99.90
27922;DHT22;15261;50.356;10.340;2024-03-06T05:28:43;6.90;99.90
27922;DHT22;15261;50.356;10.340;2024-03-06T05:31:19;6.80;99.90
27922;DHT22;15261;50.356;10.340;2024-03-06T05:33:47;6.80;99.90
27922;DHT22;15261;50.356;10.340;2024-03-06T05:36:12;6.70;99.90
27922;DHT22;15261;50.356;10.340;2024-03-06T05:38:39;6.80;99.90
27922;DHT22;15261;50.356;10.340;2024-03-06T05:41:04;6.80;99.90
27922;DHT22;15261;50.356;10.340;2024-03-06T05:43:30;6.80;99.90
27922;DHT22;15261;50.356;10.340;2024-03-06T05:45:55;6.80;99.90
27922;DHT22;15261;50.356;10.340;2024-03-06T05:48:57;6.90;99.90
27922;DHT22;15261;50.356;10.340;2024-03-06T05:51:22;6.90;99.90
27922;DHT22;15261;50.356;10.340;2024-03-06T05:53:48;6.90;99.90
27922;DHT22;15261;50.356;10.340;2024-03-06T05:56:13;7.00;99.90
27922;DHT22;15261;50.356;10.340;2024-03-06T05:58:39;6.90;99.90
27922;DHT22;15261;50.356;10.340;2024-03-06T06:01:04;7.00;99.90
27922;DHT22;15261;50.356;10.340;2024-03-06T06:03:30;7.00;99.90
27922;DHT22;15261;50.356;10.340;2024-03-06T06:05:56;7.00;99.90
27922;DHT22;15261;50.356;10.340;2024-03-06T06:08:22;7.00;99.90
27922;DHT22;15261;50.356;10.340;2024-03-06T06:10:48;7.00;99.90
27922;DHT22;15261;50.356;10.340;2024-03-06T06:13:13;7.10;99.90
27922;DHT22;15261;50.356;10.340;2024-03-06T06:15:40;7.10;99.90
27922;DHT22;15261;50.356;10.340;2024-03-06T06:18:05;7.10;99.90
27922;DHT22;15261;50.356;10.340;2024-03-06T06:20:31;7.10;99.90
27922;DHT22;15261;50.356;10.340;2024-03-06T06:22:56;7.10;99.90
27922;DHT22;15261;50.356;10.340;2024-03-06T06:25:26;7.10;99.90
27922;DHT22;15261;50.356;10.340;2024-03-06T06:27:52;7.10;99.90
27922;DHT22;15261;50.356;10.340;2024-03-06T06:30:18;7.10;99.90
27922;DHT22;15261;50.356;10.340;2024-03-06T06:32:43;7.10;99.90
27922;DHT22;15261;50.356;10.340;2024-03-06T06:35:10;7.20;99.90
27922;DHT22;15261;50.356;10.340;2024-03-06T06:37:37;7.20;99.90
27922;DHT22;15261;50.356;10.340;2024-03-06T06:40:02;7.30;99.90
27922;DHT22;15261;50.356;10.340;2024-03-06T06:42:53;7.30;99.90
27922;DHT22;15261;50.356;10.340;2024-03-06T06:45:18;7.30;99.90
27922;DHT22;15261;50.356;10.340;2024-03-06T06:47:45;7.40;99.90
27922;DHT22;15261;50.356;10.340;2024-03-06T06:50:11;7.40;99.90
27922;DHT22;15261;50.356;10.340;2024-03-06T06:52:37;7.50;99.90
27922;DHT22;15261;50.356;10.340;2024-03-06T06:55:03;7.50;99.90
27922;DHT22;15261;50.356;10.340;2024-03-06T06:57:29;7.60;99.90
27922;DHT22;15261;50.356;10.340;2024-03-06T06:59:55;7.50;99.90
27922;DHT22;15261;50.356;10.340;2024-03-06T07:02:21;7.50;99.90
27922;DHT22;15261;50.356;10.340;2024-03-06T07:04:47;7.60;99.90
27922;DHT22;15261;50.356;10.340;2024-03-06T07:07:14;7.70;99.90
27922;DHT22;15261;50.356;10.340;2024-03-06T07:09:39;7.70;99.90
27922;DHT22;15261;50.356;10.340;2024-03-06T07:12:05;7.70;99.90
27922;DHT22;15261;50.356;10.340;2024-03-06T07:14:31;7.70;99.90
27922;DHT22;15261;50.356;10.340;2024-03-06T07:16:56;7.70;99.90
27922;DHT22;15261;50.356;10.340;2024-03-06T07:19:23;7.70;99.90
27922;DHT22;15261;50.356;10.340;2024-03-06T07:21:48;7.70;99.90
27922;DHT22;15261;50.356;10.340;2024-03-06T07:24:14;7.80;99.90
27922;DHT22;15261;50.356;10.340;2024-03-06T07:26:39;7.80;99.90
27922;DHT22;15261;50.356;10.340;2024-03-06T07:29:05;7.80;99.90
27922;DHT22;15261;50.356;10.340;2024-03-06T07:31:38;8.00;99.90
27922;DHT22;15261;50.356;10.340;2024-03-06T07:34:04;8.00;99.90
27922;DHT22;15261;50.356;10.340;2024-03-06T07:36:33;8.00;99.90
27922;DHT22;15261;50.356;10.340;2024-03-06T07:39:00;8.00;99.90
27922;DHT22;15261;50.356;10.340;2024-03-06T07:41:26;8.10;99.90
27922;DHT22;15261;50.356;10.340;2024-03-06T07:43:51;8.10;99.90
27922;DHT22;15261;50.356;10.340;2024-03-06T07:46:17;8.10;99.90
27922;DHT22;15261;50.356;10.340;2024-03-06T07:48:43;8.10;99.90
27922;DHT22;15261;50.356;10.340;2024-03-06T07:51:11;7.90;99.90
27922;DHT22;15261;50.356;10.340;2024-03-06T07:53:37;8.00;99.90
27922;DHT22;15261;50.356;10.340;2024-03-06T07:56:03;8.10;99.90
27922;DHT22;15261;50.356;10.340;2024-03-06T07:58:29;8.10;99.90
27922;DHT22;15261;50.356;10.340;2024-03-06T08:00:54;8.20;99.90
27922;DHT22;15261;50.356;10.340;2024-03-06T08:03:25;8.20;99.90
27922;DHT22;15261;50.356;10.340;2024-03-06T08:05:54;8.20;99.90
27922;DHT22;15261;50.356;10.340;2024-03-06T08:08:20;8.20;99.90
27922;DHT22;15261;50.356;10.340;2024-03-06T08:10:45;8.30;99.90
27922;DHT22;15261;50.356;10.340;2024-03-06T08:13:11;8.30;99.90
27922;DHT22;15261;50.356;10.340;2024-03-06T08:15:37;8.30;99.90
27922;DHT22;15261;50.356;10.340;2024-03-06T08:18:02;8.40;99.90
27922;DHT22;15261;50.356;10.340;2024-03-06T08:20:31;8.50;99.90
27922;DHT22;15261;50.356;10.340;2024-03-06T08:22:56;8.60;99.90
27922;DHT22;15261;50.356;10.340;2024-03-06T08:25:22;8.70;99.90
27922;DHT22;15261;50.356;10.340;2024-03-06T08:27:48;8.70;99.90
27922;DHT22;15261;50.356;10.340;2024-03-06T08:30:14;8.90;99.90
27922;DHT22;15261;50.356;10.340;2024-03-06T08:32:39;9.00;99.90
27922;DHT22;15261;50.356;10.340;2024-03-06T08:35:06;9.10;99.90
27922;DHT22;15261;50.356;10.340;2024-03-06T08:37:32;9.20;99.90
27922;DHT22;15261;50.356;10.340;2024-03-06T08:39:59;9.20;99.90
27922;DHT22;15261;50.356;10.340;2024-03-06T08:42:25;9.30;99.90
27922;DHT22;15261;50.356;10.340;2024-03-06T08:44:51;9.30;99.90
27922;DHT22;15261;50.356;10.340;2024-03-06T08:47:16;9.30;99.90
27922;DHT22;15261;50.356;10.340;2024-03-06T08:49:42;9.40;99.90
27922;DHT22;15261;50.356;10.340;2024-03-06T08:52:08;9.50;99.90
27922;DHT22;15261;50.356;10.340;2024-03-06T08:54:37;9.60;99.90
27922;DHT22;15261;50.356;10.340;2024-03-06T08:57:04;9.80;99.90
27922;DHT22;15261;50.356;10.340;2024-03-06T08:59:29;10.10;99.90
27922;DHT22;15261;50.356;10.340;2024-03-06T09:01:55;10.20;99.90
27922;DHT22;15261;50.356;10.340;2024-03-06T09:04:21;10.30;99.90
27922;DHT22;15261;50.356;10.340;2024-03-06T09:06:47;10.30;99.90
27922;DHT22;15261;50.356;10.340;2024-03-06T09:09:14;10.50;99.90
27922;DHT22;15261;50.356;10.340;2024-03-06T09:11:43;10.50;99.90
27922;DHT22;15261;50.356;10.340;2024-03-06T09:14:09;10.60;99.90
27922;DHT22;15261;50.356;10.340;2024-03-06T09:16:35;10.70;99.90
27922;DHT22;15261;50.356;10.340;2024-03-06T09:19:01;10.60;99.90
27922;DHT22;15261;50.356;10.340;2024-03-06T09:21:27;10.60;99.90
27922;DHT22;15261;50.356;10.340;2024-03-06T09:23:53;10.60;99.90
27922;DHT22;15261;50.356;10.340;2024-03-06T09:26:19;10.60;99.90
27922;DHT22;15261;50.356;10.340;2024-03-06T09:28:45;10.60;99.90
27922;DHT22;15261;50.356;10.340;2024-03-06T09:31:11;10.50;99.90
27922;DHT22;15261;50.356;10.340;2024-03-06T09:33:39;10.60;99.90
27922;DHT22;15261;50.356;10.340;2024-03-06T09:36:05;10.60;99.90
27922;DHT22;15261;50.356;10.340;2024-03-06T09:38:31;10.70;99.90
27922;DHT22;15261;50.356;10.340;2024-03-06T09:40:57;10.90;99.90
27922;DHT22;15261;50.356;10.340;2024-03-06T09:43:22;10.90;99.90
27922;DHT22;15261;50.356;10.340;2024-03-06T09:45:50;11.10;99.90
27922;DHT22;15261;50.356;10.340;2024-03-06T09:48:18;11.30;99.90
27922;DHT22;15261;50.356;10.340;2024-03-06T09:50:46;11.50;99.90
27922;DHT22;15261;50.356;10.340;2024-03-06T09:53:16;11.50;99.90
27922;DHT22;15261;50.356;10.340;2024-03-06T09:55:42;11.60;99.90
27922;DHT22;15261;50.356;10.340;2024-03-06T09:58:08;11.60;99.90
27922;DHT22;15261;50.356;10.340;2024-03-06T10:00:37;11.50;99.90
27922;DHT22;15261;50.356;10.340;2024-03-06T10:03:03;11.70;99.90
27922;DHT22;15261;50.356;10.340;2024-03-06T10:05:34;11.80;99.90
27922;DHT22;15261;50.356;10.340;2024-03-06T10:08:04;11.90;99.90
27922;DHT22;15261;50.356;10.340;2024-03-06T10:10:30;11.90;99.90
27922;DHT22;15261;50.356;10.340;2024-03-06T10:12:57;12.00;99.90
27922;DHT22;15261;50.356;10.340;2024-03-06T10:15:23;12.00;99.90
27922;DHT22;15261;50.356;10.340;2024-03-06T10:17:49;11.90;99.90
27922;DHT22;15261;50.356;10.340;2024-03-06T10:20:23;11.90;99.90
27922;DHT22;15261;50.356;10.340;2024-03-06T10:22:50;11.70;99.90
27922;DHT22;15261;50.356;10.340;2024-03-06T10:25:25;11.70;99.90
27922;DHT22;15261;50.356;10.340;2024-03-06T10:28:09;11.90;99.90
27922;DHT22;15261;50.356;10.340;2024-03-06T10:30:36;12.10;99.90
27922;DHT22;15261;50.356;10.340;2024-03-06T10:33:03;12.30;99.90
27922;DHT22;15261;50.356;10.340;2024-03-06T10:35:29;12.40;99.90
27922;DHT22;15261;50.356;10.340;2024-03-06T10:37:55;12.40;99.90
27922;DHT22;15261;50.356;10.340;2024-03-06T10:40:22;12.40;99.90
27922;DHT22;15261;50.356;10.340;2024-03-06T10:42:48;12.50;99.90
27922;DHT22;15261;50.356;10.340;2024-03-06T10:45:14;12.50;99.90
27922;DHT22;15261;50.356;10.340;2024-03-06T10:47:46;12.10;99.90
27922;DHT22;15261;50.356;10.340;2024-03-06T10:50:15;11.60;99.90
27922;DHT22;15261;50.356;10.340;2024-03-06T10:52:42;11.50;99.90
27922;DHT22;15261;50.356;10.340;2024-03-06T10:55:08;11.60;99.90
27922;DHT22;15261;50.356;10.340;2024-03-06T10:57:36;11.70;99.90
27922;DHT22;15261;50.356;10.340;2024-03-06T11:00:02;11.70;99.90
27922;DHT22;15261;50.356;10.340;2024-03-06T11:02:28;11.40;99.90
27922;DHT22;15261;50.356;10.340;2024-03-06T11:04:54;11.20;99.90
27922;DHT22;15261;50.356;10.340;2024-03-06T11:07:23;11.20;99.90
27922;DHT22;15261;50.356;10.340;2024-03-06T11:09:48;11.40;99.90
27922;DHT22;15261;50.356;10.340;2024-03-06T11:12:35;11.50;99.90
27922;DHT22;15261;50.356;10.340;2024-03-06T11:15:18;11.20;99.90
27922;DHT22;15261;50.356;10.340;2024-03-06T11:17:46;11.20;99.90
27922;DHT22;15261;50.356;10.340;2024-03-06T11:20:18;11.20;99.90
27922;DHT22;15261;50.356;10.340;2024-03-06T11:28:18;11.50;99.90
27922;DHT22;15261;50.356;10.340;2024-03-06T11:31:00;11.60;99.90
27922;DHT22;15261;50.356;10.340;2024-03-06T11:33:40;11.30;99.90
27922;DHT22;15261;50.356;10.340;2024-03-06T11:36:16;11.20;99.90
27922;DHT22;15261;50.356;10.340;2024-03-06T11:39:02;11.30;99.90
27922;DHT22;15261;50.356;10.340;2024-03-06T11:44:12;11.80;99.90
27922;DHT22;15261;50.356;10.340;2024-03-06T11:46:44;11.80;99.90
27922;DHT22;15261;50.356;10.340;2024-03-06T11:49:19;12.00;99.90
27922;DHT22;15261;50.356;10.340;2024-03-06T11:51:52;12.10;99.90
27922;DHT22;15261;50.356;10.340;2024-03-06T11:54:18;12.20;99.90
27922;DHT22;15261;50.356;10.340;2024-03-06T11:56:49;12.00;99.90
27922;DHT22;15261;50.356;10.340;2024-03-06T11:59:17;11.80;99.90
27922;DHT22;15261;50.356;10.340;2024-03-06T12:01:43;11.60;99.90
27922;DHT22;15261;50.356;10.340;2024-03-06T12:04:09;11.30;99.90
27922;DHT22;15261;50.356;10.340;2024-03-06T12:06:35;11.20;99.90
27922;DHT22;15261;50.356;10.340;2024-03-06T12:09:02;11.30;99.90
27922;DHT22;15261;50.356;10.340;2024-03-06T12:11:29;11.20;99.90
27922;DHT22;15261;50.356;10.340;2024-03-06T12:13:56;11.30;99.90
27922;DHT22;15261;50.356;10.340;2024-03-06T12:16:23;11.40;99.90
27922;DHT22;15261;50.356;10.340;2024-03-06T12:18:56;10.90;99.90
27922;DHT22;15261;50.356;10.340;2024-03-06T12:21:28;10.90;99.90
27922;DHT22;15261;50.356;10.340;2024-03-06T12:24:10;11.00;99.90
27922;DHT22;15261;50.356;10.340;2024-03-06T12:26:36;10.80;99.90
27922;DHT22;15261;50.356;10.340;2024-03-06T12:29:09;10.90;99.90
27922;DHT22;15261;50.356;10.340;2024-03-06T12:31:37;10.80;99.90
27922;DHT22;15261;50.356;10.340;2024-03-06T12:34:03;10.90;99.90
27922;DHT22;15261;50.356;10.340;2024-03-06T12:36:30;10.80;99.90
27922;DHT22;15261;50.356;10.340;2024-03-06T12:38:59;10.60;99.90
27922;DHT22;15261;50.356;10.340;2024-03-06T12:41:25;10.50;99.90
27922;DHT22;15261;50.356;10.340;2024-03-06T12:43:52;10.80;99.90
27922;DHT22;15261;50.356;10.340;2024-03-06T12:46:19;10.90;99.90
27922;DHT22;15261;50.356;10.340;2024-03-06T12:48:45;11.10;99.90
27922;DHT22;15261;50.356;10.340;2024-03-06T12:51:11;11.40;99.90
27922;DHT22;15261;50.356;10.340;2024-03-06T12:53:37;11.30;99.90
27922;DHT22;15261;50.356;10.340;2024-03-06T12:56:04;11.20;99.90
27922;DHT22;15261;50.356;10.340;2024-03-06T12:58:30;11.00;99.90
27922;DHT22;15261;50.356;10.340;2024-03-06T13:01:00;10.80;99.90
27922;DHT22;15261;50.356;10.340;2024-03-06T13:03:27;10.90;99.90
27922;DHT22;15261;50.356;10.340;2024-03-06T13:05:53;10.90;99.90
27922;DHT22;15261;50.356;10.340;2024-03-06T13:08:19;11.10;99.90
27922;DHT22;15261;50.356;10.340;2024-03-06T13:10:44;11.40;99.90
27922;DHT22;15261;50.356;10.340;2024-03-06T13:13:10;11.80;99.90
27922;DHT22;15261;50.356;10.340;2024-03-06T13:15:36;12.00;99.90
27922;DHT22;15261;50.356;10.340;2024-03-06T13:18:04;11.60;99.90
27922;DHT22;15261;50.356;10.340;2024-03-06T13:20:30;11.40;99.90
27922;DHT22;15261;50.356;10.340;2024-03-06T13:22:56;11.30;99.90
27922;DHT22;15261;50.356;10.340;2024-03-06T13:25:22;11.60;99.90
27922;DHT22;15261;50.356;10.340;2024-03-06T13:27:49;11.80;99.90
27922;DHT22;15261;50.356;10.340;2024-03-06T13:30:16;11.70;99.90
27922;DHT22;15261;50.356;10.340;2024-03-06T13:32:42;11.80;99.90
27922;DHT22;15261;50.356;10.340;2024-03-06T13:35:13;11.80;99.90
27922;DHT22;15261;50.356;10.340;2024-03-06T13:37:40;11.50;99.90
27922;DHT22;15261;50.356;10.340;2024-03-06T13:40:07;11.80;99.90
27922;DHT22;15261;50.356;10.340;2024-03-06T13:42:34;12.00;99.90
27922;DHT22;15261;50.356;10.340;2024-03-06T13:45:01;12.20;99.90
27922;DHT22;15261;50.356;10.340;2024-03-06T13:47:27;12.20;99.90
27922;DHT22;15261;50.356;10.340;2024-03-06T13:50:16;12.40;99.90
27922;DHT22;15261;50.356;10.340;2024-03-06T13:52:48;12.30;99.80
27922;DHT22;15261;50.356;10.340;2024-03-06T13:55:13;12.10;99.60
27922;DHT22;15261;50.356;10.340;2024-03-06T13:57:39;12.10;99.90
27922;DHT22;15261;50.356;10.340;2024-03-06T14:00:16;11.80;99.90
27922;DHT22;15261;50.356;10.340;2024-03-06T14:02:49;11.60;99.90
27922;DHT22;15261;50.356;10.340;2024-03-06T14:05:33;11.60;99.90
27922;DHT22;15261;50.356;10.340;2024-03-06T14:07:59;11.60;99.90
27922;DHT22;15261;50.356;10.340;2024-03-06T14:10:27;11.80;99.90
27922;DHT22;15261;50.356;10.340;2024-03-06T14:13:04;12.00;99.90
27922;DHT22;15261;50.356;10.340;2024-03-06T14:15:32;12.20;99.40
27922;DHT22;15261;50.356;10.340;2024-03-06T14:18:03;12.00;99.00
27922;DHT22;15261;50.356;10.340;2024-03-06T14:20:29;12.20;98.90
27922;DHT22;15261;50.356;10.340;2024-03-06T14:22:55;11.90;99.10
27922;DHT22;15261;50.356;10.340;2024-03-06T14:25:21;11.70;99.30
27922;DHT22;15261;50.356;10.340;2024-03-06T14:27:47;11.80;99.80
27922;DHT22;15261;50.356;10.340;2024-03-06T14:30:25;11.90;99.90
27922;DHT22;15261;50.356;10.340;2024-03-06T14:32:51;11.70;98.90
27922;DHT22;15261;50.356;10.340;2024-03-06T14:38:38;11.20;99.80
27922;DHT22;15261;50.356;10.340;2024-03-06T14:41:04;11.00;99.90
27922;DHT22;15261;50.356;10.340;2024-03-06T14:43:31;11.10;99.90
27922;DHT22;15261;50.356;10.340;2024-03-06T14:46:00;11.00;99.90
27922;DHT22;15261;50.356;10.340;2024-03-06T14:48:25;11.20;99.90
27922;DHT22;15261;50.356;10.340;2024-03-06T14:50:51;11.00;99.90
27922;DHT22;15261;50.356;10.340;2024-03-06T14:53:17;10.60;99.90
27922;DHT22;15261;50.356;10.340;2024-03-06T14:58:57;10.40;99.90
27922;DHT22;15261;50.356;10.340;2024-03-06T15:01:23;10.60;99.90
27922;DHT22;15261;50.356;10.340;2024-03-06T15:03:51;10.70;99.90
27922;DHT22;15261;50.356;10.340;2024-03-06T15:06:16;10.70;99.90
27922;DHT22;15261;50.356;10.340;2024-03-06T15:08:48;10.70;99.90
27922;DHT22;15261;50.356;10.340;2024-03-06T15:11:14;10.80;99.90
27922;DHT22;15261;50.356;10.340;2024-03-06T15:13:40;10.70;99.90
27922;DHT22;15261;50.356;10.340;2024-03-06T15:16:06;10.70;99.90
27922;DHT22;15261;50.356;10.340;2024-03-06T15:18:33;10.50;99.90
27922;DHT22;15261;50.356;10.340;2024-03-06T15:20:59;10.40;99.90
27922;DHT22;15261;50.356;10.340;2024-03-06T15:23:25;10.60;99.90
27922;DHT22;15261;50.356;10.340;2024-03-06T15:25:50;10.50;99.90
27922;DHT22;15261;50.356;10.340;2024-03-06T15:28:16;10.60;99.90
27922;DHT22;15261;50.356;10.340;2024-03-06T15:30:42;10.60;99.90
27922;DHT22;15261;50.356;10.340;2024-03-06T15:33:07;10.60;99.90
27922;DHT22;15261;50.356;10.340;2024-03-06T15:35:34;10.60;99.90
27922;DHT22;15261;50.356;10.340;2024-03-06T15:37:59;10.30;99.90
27922;DHT22;15261;50.356;10.340;2024-03-06T15:40:25;10.20;99.90
27922;DHT22;15261;50.356;10.340;2024-03-06T15:42:51;10.00;99.90
27922;DHT22;15261;50.356;10.340;2024-03-06T15:45:17;10.00;99.90
27922;DHT22;15261;50.356;10.340;2024-03-06T15:47:42;10.00;99.90
27922;DHT22;15261;50.356;10.340;2024-03-06T15:50:09;10.10;99.90
27922;DHT22;15261;50.356;10.340;2024-03-06T15:52:49;10.10;99.90
27922;DHT22;15261;50.356;10.340;2024-03-06T15:55:15;10.20;99.90
27922;DHT22;15261;50.356;10.340;2024-03-06T15:57:40;10.20;99.90
27922;DHT22;15261;50.356;10.340;2024-03-06T16:00:07;10.20;99.90
27922;DHT22;15261;50.356;10.340;2024-03-06T16:02:40;10.30;99.90
27922;DHT22;15261;50.356;10.340;2024-03-06T16:05:07;10.40;99.90
27922;DHT22;15261;50.356;10.340;2024-03-06T16:07:33;10.40;99.90
27922;DHT22;15261;50.356;10.340;2024-03-06T16:09:59;10.40;99.90